Castine, Maine
Current Conditions -  °F | °C
As of 7:55 AM on Thursday 30 Oct 2014 (Local Time) from KBHB Reporting Station
Clear Clear  
Wind Chill: 43°   Ceiling: Unl
Heat Index: 43°   Visibility: 10mi
Dew Point: 43°   Wind: 3mph
Humidity: 100%   Direction: 240°WSW
Pressure: 29.87"   Gusts: NA
Location:  44.39°N, 68.8°W
Report Text: KBHB 301155Z AUTO 24003KT 10SM CLR 06/06 A2987 RMK AO1 60001 70012 10110 20060 52017
Loading
Personal Weather Stations






























Interactive Weather Map
Tropical Storm Tracking
New forecast layout! Learn more

10-Day Weather Forecast

Advertisements
Track Severe Weather on mobile